Irving, TX

6:08 PM CDT on September 30, 2014 (GMT -0500)
Hackberry Creek | Change Station
CLOSE
Current Station
Personal Weather Station
Location: Irving, TX
Elevation: 507 ft
Nearby Weather Stations

Elev 507 ft 32.91 °N, 96.98 °W | Updated 5 seconds ago

Scattered Clouds
Scattered Clouds
88.2 °F
Feels Like 91 °F
N
3.7
Wind Variable Wind from SE
Gusts 7.3 mph

Today
High -- | Low -- °F
--% Chance of Precip.
Yesterday
High -- | Low -- °F
Precip. -- in
7:21 AM 7:13 PM
Waxing Crescent, 41% visible
Pressure 29.72 in
Visibility 10.0 miles
Clouds Scattered Clouds 6500 ft
Scattered Clouds 25000 ft
Heat Index 91 °F
Dew Point 67 °F
Humidity 50%
Rainfall 0.00 in
Snow Depth Not available.
UV 1 out of 12
Pollen 8.90 out of 12
Ozone Good
PM2.5 Good
Flu Activity Not available.
METAR KDFW 302253Z 13011KT 10SM SCT065 SCT250 33/17 A2974 RMK AO2 SLP062 T03280167

More Conditions Fewer Conditions

Pressure 29.72 in
Visibility 10.0 miles
Clouds Scattered Clouds 6500 ft
Scattered Clouds 25000 ft
Heat Index 91 °F
Dew Point 67 °F
Humidity 50%
Rainfall 0.00 in
Snow Depth Not available.
UV 1 out of 12
Pollen 8.90 out of 12
Ozone Good
PM2.5 Good
Flu Activity Not available.
METAR KDFW 302253Z 13011KT 10SM SCT065 SCT250 33/17 A2974 RMK AO2 SLP062 T03280167

More Conditions Fewer Conditions

10-Day Weather Forecast

Almanac

Astronomy

Sep. 30, 2014 Rise Set
Actual Time 7:21 AM CDT 7:13 PM CDT
Civil Twilight 6:56 AM CDT 7:38 PM CDT
Nautical Twilight 6:28 AM CDT 8:06 PM CDT
Astronomical Twilight 5:59 AM CDT 8:35 PM CDT
Moon 1:16 PM CDT 11:59 PM CDT
Length of Visible Light 12h 41m
Length of Day
11h 52m
Tomorrow will be 2m 1s shorter.
Waxing Crescent, 41% of the Moon is Illuminated
Today
Waxing Crescent
Oct 1
First Quarter
Oct 8
Full
Oct 15
Last Quarter
Oct 23
New

Today's Extremes

State Highs State Lows

Community

WunderPhotos

Upload Photos

1,757,768 photos uploaded!

Nearby

Air Quality

  Air Quality AQ Index Pollutant
Yesterday Moderate
OZONE
Yesterday Good
PM2.5
Current Good
OZONE
Current Good
PM2.5
Tuesday Moderate
OZONE
Tuesday Good
PM10
Wednesday Good
OZONE
Wednesday Good
PM10
Thursday Good
OZONE
Thursday Good
PM10
Friday Good
OZONE
Friday Good
PM10

Snow Depth

Station Depth Elevation
No new snow has been reported.

Earthquake Activity

City Distance Mag. Time & Date
No recent earthquake activity has been reported nearby.
Minimum magnitude displayed is 2.5.

Coastal Water Temperatures

Place Temperature
No Stations Reporting

Nearby Weather Stations